createdAt,value
2019-05-26T00:01:23.747Z,10.30
2019-05-26T00:03:54.404Z,10.20
2019-05-26T00:06:24.937Z,8.50
2019-05-26T00:08:55.459Z,8.93
2019-05-26T00:11:25.814Z,8.57
2019-05-26T00:13:56.058Z,7.67
2019-05-26T00:16:26.351Z,9.70
2019-05-26T00:18:57.469Z,7.00
2019-05-26T00:21:27.824Z,9.10
2019-05-26T00:23:58.601Z,7.03
2019-05-26T00:26:29.130Z,11.03
2019-05-26T00:29:00.267Z,11.47
2019-05-26T00:31:30.445Z,21.53
2019-05-26T00:34:00.994Z,15.97
2019-05-26T00:36:31.433Z,22.73
2019-05-26T00:39:01.790Z,18.40
2019-05-26T00:41:32.292Z,22.17
2019-05-26T00:44:02.847Z,19.73
2019-05-26T00:46:33.241Z,14.40
2019-05-26T00:49:03.691Z,10.90
2019-05-26T00:51:34.128Z,10.93
2019-05-26T00:54:04.645Z,10.73
2019-05-26T00:56:35.151Z,13.20
2019-05-26T00:59:05.896Z,12.47
2019-05-26T01:01:36.141Z,13.23
2019-05-26T01:04:06.584Z,12.07
2019-05-26T01:06:36.962Z,8.97
2019-05-26T01:09:08.865Z,9.73
2019-05-26T01:11:39.506Z,7.27
2019-05-26T01:14:10.172Z,8.37
2019-05-26T01:16:40.530Z,6.73
2019-05-26T01:19:10.967Z,12.50
2019-05-26T01:21:41.260Z,13.20
2019-05-26T01:24:11.842Z,9.60
2019-05-26T01:26:42.217Z,13.03
2019-05-26T01:29:12.763Z,9.47
2019-05-26T01:31:43.261Z,9.40
2019-05-26T01:34:13.847Z,9.20
2019-05-26T01:36:44.567Z,11.87
2019-05-26T01:39:15.238Z,9.77
2019-05-26T01:41:45.714Z,10.93
2019-05-26T01:44:16.231Z,8.83
2019-05-26T01:46:46.654Z,11.67
2019-05-26T01:49:17.029Z,7.33
2019-05-26T01:51:47.637Z,7.97
2019-05-26T01:54:18.046Z,8.60
2019-05-26T01:56:48.380Z,11.63
2019-05-26T01:59:18.906Z,10.87
2019-05-26T02:01:49.347Z,16.67
2019-05-26T02:04:19.792Z,12.97
2019-05-26T02:06:50.052Z,11.87
2019-05-26T02:09:20.414Z,11.50
2019-05-26T02:11:50.780Z,12.90
2019-05-26T02:14:21.394Z,10.97
2019-05-26T02:16:51.838Z,13.47
2019-05-26T02:19:22.332Z,12.60
2019-05-26T02:21:52.951Z,11.60
2019-05-26T02:24:23.384Z,12.40
2019-05-26T02:26:53.819Z,10.53
2019-05-26T02:29:24.372Z,10.17
2019-05-26T02:31:54.672Z,9.37
2019-05-26T02:34:24.980Z,8.73
2019-05-26T02:36:55.321Z,10.03
2019-05-26T02:39:25.644Z,9.53
2019-05-26T02:41:56.289Z,9.33
2019-05-26T02:44:26.927Z,8.93
2019-05-26T02:46:57.297Z,12.57
2019-05-26T02:49:27.824Z,11.47
2019-05-26T02:51:58.189Z,9.23
2019-05-26T02:54:28.816Z,10.60
2019-05-26T02:56:59.442Z,9.17
2019-05-26T02:59:29.979Z,10.37
2019-05-26T03:02:03.953Z,11.20
2019-05-26T03:04:31.045Z,8.90
2019-05-26T03:07:01.590Z,9.70
2019-05-26T03:09:32.203Z,8.70
2019-05-26T03:12:02.791Z,10.57
2019-05-26T03:14:34.709Z,11.63
2019-05-26T03:17:05.183Z,11.67
2019-05-26T03:19:36.357Z,10.53
2019-05-26T03:22:06.855Z,9.07
2019-05-26T03:24:37.497Z,9.10
2019-05-26T03:27:08.036Z,9.40
2019-05-26T03:29:38.338Z,8.53
2019-05-26T03:32:08.715Z,9.47
2019-05-26T03:34:39.237Z,8.40
2019-05-26T03:37:09.582Z,9.67
2019-05-26T03:39:45.439Z,8.60
2019-05-26T03:42:10.569Z,8.67
2019-05-26T03:44:41.341Z,12.33
2019-05-26T03:47:16.423Z,12.37
2019-05-26T03:49:42.197Z,13.53
2019-05-26T03:52:12.798Z,15.33
2019-05-26T03:54:43.245Z,14.53
2019-05-26T03:57:13.675Z,12.90
2019-05-26T03:59:44.207Z,13.23
2019-05-26T04:02:14.611Z,13.77
2019-05-26T04:04:45.144Z,13.03
2019-05-26T04:07:15.550Z,12.83
2019-05-26T04:10:03.134Z,13.80
2019-05-26T04:12:16.398Z,15.40
2019-05-26T04:14:46.857Z,16.27
2019-05-26T04:17:17.266Z,15.73
2019-05-26T04:19:47.730Z,14.97
2019-05-26T04:22:18.146Z,15.63
2019-05-26T04:24:48.784Z,15.93
2019-05-26T04:27:19.369Z,13.93
2019-05-26T04:29:49.964Z,18.63
2019-05-26T04:32:20.532Z,17.20
2019-05-26T04:34:51.047Z,14.30
2019-05-26T04:37:21.688Z,14.87
2019-05-26T04:39:52.081Z,15.30
2019-05-26T04:42:22.641Z,17.20
2019-05-26T04:44:53.046Z,18.47
2019-05-26T04:47:23.532Z,16.97
2019-05-26T04:49:53.920Z,17.33
2019-05-26T04:52:24.338Z,16.57
2019-05-26T04:54:54.737Z,16.23
2019-05-26T04:57:25.271Z,15.27
2019-05-26T04:59:55.893Z,13.90
2019-05-26T05:02:26.408Z,15.27
2019-05-26T05:04:56.815Z,16.13
2019-05-26T05:07:28.472Z,13.37
2019-05-26T05:09:59.659Z,15.00
2019-05-26T05:12:30.412Z,16.77
2019-05-26T05:15:01.099Z,15.27
2019-05-26T05:17:31.423Z,11.23
2019-05-26T05:20:01.953Z,12.63
2019-05-26T05:22:32.183Z,12.80
2019-05-26T05:25:02.478Z,10.27
2019-05-26T05:27:33.025Z,10.17
2019-05-26T05:30:04.222Z,10.50
2019-05-26T05:32:34.761Z,10.00
2019-05-26T05:35:05.820Z,9.73
2019-05-26T05:37:36.543Z,12.53
2019-05-26T05:40:07.708Z,11.47
2019-05-26T05:42:38.280Z,9.77
2019-05-26T05:45:09.039Z,11.23
2019-05-26T05:47:39.607Z,11.33
2019-05-26T05:50:10.266Z,10.63
2019-05-26T05:52:40.732Z,11.10
2019-05-26T05:55:11.354Z,11.93
2019-05-26T05:57:41.729Z,10.17
2019-05-26T06:00:12.464Z,8.23
2019-05-26T06:02:43.046Z,9.47
2019-05-26T06:05:13.675Z,8.83
2019-05-26T06:07:44.277Z,10.10
2019-05-26T06:10:14.788Z,6.47
2019-05-26T06:12:45.411Z,7.87
2019-05-26T06:15:17.293Z,6.27
2019-05-26T06:17:45.993Z,5.63
2019-05-26T06:20:16.661Z,6.73
2019-05-26T06:22:47.139Z,8.07
2019-05-26T06:25:18.088Z,6.00
2019-05-26T06:27:48.585Z,6.13
2019-05-26T06:30:19.268Z,4.27
2019-05-26T06:32:49.704Z,5.40
2019-05-26T06:35:20.147Z,4.93
2019-05-26T06:37:50.700Z,5.33
2019-05-26T06:40:21.277Z,5.87
2019-05-26T06:42:51.882Z,6.40
2019-05-26T06:45:22.394Z,7.10
2019-05-26T06:47:52.824Z,7.17
2019-05-26T06:50:23.524Z,6.50
2019-05-26T06:52:54.028Z,5.50
2019-05-26T06:55:24.609Z,7.00
2019-05-26T06:57:54.984Z,5.80
2019-05-26T07:00:25.543Z,8.00
2019-05-26T07:02:56.169Z,5.87
2019-05-26T07:05:26.718Z,9.10
2019-05-26T07:07:57.144Z,6.67
2019-05-26T07:10:27.565Z,6.70
2019-05-26T07:12:57.969Z,6.60
2019-05-26T07:15:28.409Z,8.50
2019-05-26T07:17:58.979Z,7.13
2019-05-26T07:20:29.387Z,6.20
2019-05-26T07:22:59.912Z,7.77
2019-05-26T07:25:30.646Z,6.60
2019-05-26T07:28:01.208Z,7.17
2019-05-26T07:30:31.716Z,6.60
2019-05-26T07:33:02.390Z,8.23
2019-05-26T07:35:33.252Z,8.20
2019-05-26T07:38:03.392Z,6.73
2019-05-26T07:40:33.810Z,7.80
2019-05-26T07:43:04.344Z,8.03
2019-05-26T07:45:34.798Z,7.07
2019-05-26T07:48:05.163Z,7.60
2019-05-26T07:50:35.593Z,6.87
2019-05-26T07:53:06.028Z,7.77
2019-05-26T07:55:36.426Z,6.90
2019-05-26T07:58:07.082Z,9.03
2019-05-26T08:00:37.425Z,7.50
2019-05-26T08:03:07.805Z,8.83
2019-05-26T08:05:38.418Z,8.63
2019-05-26T08:08:13.176Z,8.40
2019-05-26T08:10:39.811Z,7.70
2019-05-26T08:13:09.497Z,9.10
2019-05-26T08:15:39.809Z,8.17
2019-05-26T08:18:10.165Z,9.53
2019-05-26T08:20:41.565Z,9.10
2019-05-26T08:23:11.794Z,6.80
2019-05-26T08:25:42.221Z,7.47
2019-05-26T08:28:12.593Z,8.57
2019-05-26T08:30:42.977Z,10.50
2019-05-26T08:33:13.462Z,8.13
2019-05-26T08:35:43.993Z,6.53
2019-05-26T08:38:14.244Z,8.03
2019-05-26T08:40:44.629Z,7.37
2019-05-26T08:43:14.903Z,7.33
2019-05-26T08:45:45.698Z,6.40
2019-05-26T08:48:15.919Z,7.30
2019-05-26T08:50:46.375Z,7.13
2019-05-26T08:53:16.775Z,7.73
2019-05-26T08:55:46.917Z,8.60
2019-05-26T08:58:17.350Z,10.20
2019-05-26T09:00:47.430Z,6.57
2019-05-26T09:03:17.692Z,9.00
2019-05-26T09:05:48.000Z,7.60
2019-05-26T09:08:19.730Z,6.93
2019-05-26T09:10:50.220Z,8.13
2019-05-26T09:13:20.624Z,7.77
2019-05-26T09:15:50.911Z,8.83
2019-05-26T09:18:21.236Z,6.80
2019-05-26T09:20:51.598Z,7.50
2019-05-26T09:23:22.141Z,7.40
2019-05-26T09:25:52.525Z,6.17
2019-05-26T09:28:22.961Z,9.63
2019-05-26T09:30:52.791Z,6.10
2019-05-26T09:33:22.918Z,6.67
2019-05-26T09:35:53.318Z,8.67
2019-05-26T09:38:23.806Z,6.20
2019-05-26T09:40:54.253Z,6.33
2019-05-26T09:43:24.616Z,6.83
2019-05-26T09:45:55.296Z,6.73
2019-05-26T09:48:25.578Z,5.90
2019-05-26T09:50:55.865Z,6.03
2019-05-26T09:53:25.590Z,5.97
2019-05-26T09:55:56.028Z,5.87
2019-05-26T09:58:26.384Z,6.70
2019-05-26T10:00:56.911Z,6.43
2019-05-26T10:03:27.493Z,6.63
2019-05-26T10:05:57.943Z,5.80
2019-05-26T10:08:28.568Z,6.63
2019-05-26T10:10:58.906Z,5.80
2019-05-26T10:13:31.966Z,5.53
2019-05-26T10:15:59.778Z,7.40
2019-05-26T10:18:30.073Z,6.47
2019-05-26T10:21:00.503Z,6.13
2019-05-26T10:23:30.899Z,4.77
2019-05-26T10:26:01.398Z,6.20
2019-05-26T10:28:31.785Z,4.23
2019-05-26T10:31:02.189Z,3.80
2019-05-26T10:33:32.503Z,4.20
2019-05-26T10:36:02.876Z,4.30
2019-05-26T10:38:33.230Z,3.97
2019-05-26T10:41:03.658Z,4.53
2019-05-26T10:43:46.413Z,4.43
2019-05-26T10:46:04.919Z,4.10
2019-05-26T10:48:35.295Z,3.07
2019-05-26T10:51:06.986Z,2.63
2019-05-26T10:53:36.062Z,4.10
2019-05-26T10:56:06.481Z,2.70
2019-05-26T10:58:36.801Z,3.53
2019-05-26T11:01:07.244Z,3.37
2019-05-26T11:03:37.928Z,3.43
2019-05-26T11:06:08.461Z,3.50
2019-05-26T11:08:39.086Z,3.70
2019-05-26T11:11:09.637Z,2.93
2019-05-26T11:13:40.785Z,4.47
2019-05-26T11:16:10.409Z,3.17
2019-05-26T11:18:40.665Z,2.33
2019-05-26T11:21:12.506Z,2.67
2019-05-26T11:23:41.471Z,3.03
2019-05-26T11:26:11.693Z,2.53
2019-05-26T11:28:42.103Z,5.47
2019-05-26T11:31:12.492Z,2.57
2019-05-26T11:33:42.870Z,3.10
2019-05-26T11:36:13.188Z,3.80
2019-05-26T11:38:43.518Z,2.23
2019-05-26T11:41:13.809Z,2.30
2019-05-26T11:43:43.998Z,6.73
2019-05-26T11:46:16.758Z,2.60
2019-05-26T11:48:44.919Z,2.10
2019-05-26T11:51:15.346Z,2.20
2019-05-26T11:53:45.639Z,2.53
2019-05-26T11:56:16.016Z,2.63
2019-05-26T11:58:46.519Z,2.00
2019-05-26T12:01:17.184Z,2.90
2019-05-26T12:03:47.773Z,4.43
2019-05-26T12:06:18.137Z,3.07
2019-05-26T12:08:48.717Z,2.90
2019-05-26T12:11:19.084Z,2.03
2019-05-26T12:13:49.442Z,2.63
2019-05-26T12:16:19.896Z,2.13
2019-05-26T12:18:50.513Z,2.00
2019-05-26T12:21:20.476Z,2.60
2019-05-26T12:23:54.712Z,2.07
2019-05-26T12:26:21.140Z,3.60
2019-05-26T12:28:51.250Z,3.13
2019-05-26T12:31:21.676Z,2.67
2019-05-26T12:33:52.094Z,5.47
2019-05-26T12:36:22.833Z,3.03
2019-05-26T12:38:53.242Z,4.47
2019-05-26T12:41:23.885Z,3.00
2019-05-26T12:43:54.306Z,2.13
2019-05-26T12:46:24.782Z,2.63
2019-05-26T12:48:55.229Z,3.50
2019-05-26T12:51:25.638Z,2.83
2019-05-26T12:53:56.220Z,3.90
2019-05-26T12:56:26.695Z,3.90
2019-05-26T12:58:57.137Z,2.00
2019-05-26T13:01:27.611Z,2.43
2019-05-26T13:03:58.125Z,3.00
2019-05-26T13:06:28.839Z,4.73
2019-05-26T13:08:59.285Z,3.57
2019-05-26T13:11:29.759Z,5.37
2019-05-26T13:14:00.266Z,2.60
2019-05-26T13:16:31.074Z,4.83
2019-05-26T13:19:01.503Z,4.20
2019-05-26T13:21:32.339Z,2.67
2019-05-26T13:24:02.944Z,3.37
2019-05-26T13:26:33.381Z,4.57
2019-05-26T13:29:03.650Z,4.10
2019-05-26T13:31:34.043Z,3.27
2019-05-26T13:34:04.673Z,2.97
2019-05-26T13:36:35.166Z,3.13
2019-05-26T13:39:07.296Z,3.77
2019-05-26T13:41:37.902Z,2.47
2019-05-26T13:44:08.290Z,3.03
2019-05-26T13:46:38.732Z,3.07
2019-05-26T13:49:08.532Z,3.30
2019-05-26T13:51:38.909Z,2.57
2019-05-26T13:54:09.419Z,2.73
2019-05-26T13:56:39.642Z,4.00
2019-05-26T13:59:09.737Z,4.57
2019-05-26T14:01:40.719Z,2.70
2019-05-26T14:04:11.310Z,2.40
2019-05-26T14:06:41.878Z,3.53
2019-05-26T14:09:12.562Z,2.40
2019-05-26T14:11:43.036Z,2.73
2019-05-26T14:14:13.357Z,2.30
2019-05-26T14:16:44.178Z,2.27
2019-05-26T14:19:14.877Z,3.57
2019-05-26T14:21:45.287Z,3.10
2019-05-26T14:24:15.635Z,3.10
2019-05-26T14:26:46.113Z,2.87
2019-05-26T14:29:16.677Z,2.40
2019-05-26T14:31:47.137Z,2.60
2019-05-26T14:34:17.474Z,2.47
2019-05-26T14:36:47.826Z,6.53
2019-05-26T14:39:18.153Z,3.77
2019-05-26T14:41:48.727Z,2.67
2019-05-26T14:44:19.165Z,2.50
2019-05-26T14:46:49.504Z,2.40
2019-05-26T14:49:19.986Z,2.50
2019-05-26T14:51:50.448Z,2.63
2019-05-26T14:54:21.263Z,2.83
2019-05-26T14:56:51.715Z,2.17
2019-05-26T14:59:22.006Z,2.40
2019-05-26T15:01:52.738Z,3.23
2019-05-26T15:04:23.372Z,3.53
2019-05-26T15:06:54.106Z,2.43
2019-05-26T15:09:25.551Z,2.93
2019-05-26T15:11:54.919Z,2.60
2019-05-26T15:14:25.490Z,2.27
2019-05-26T15:16:56.280Z,2.33
2019-05-26T15:19:26.890Z,3.13
2019-05-26T15:21:57.549Z,2.83
2019-05-26T15:24:28.744Z,2.87
2019-05-26T15:26:59.133Z,3.20
2019-05-26T15:29:29.496Z,2.80
2019-05-26T15:32:02.756Z,3.77
2019-05-26T15:34:30.625Z,3.93
2019-05-26T15:37:01.058Z,2.00
2019-05-26T15:39:31.752Z,2.50
2019-05-26T15:42:02.605Z,3.67
2019-05-26T15:44:33.076Z,2.53
2019-05-26T15:47:02.994Z,2.50
2019-05-26T15:49:33.309Z,2.93
2019-05-26T15:52:03.816Z,3.60
2019-05-26T15:54:34.193Z,2.50
2019-05-26T15:57:04.795Z,2.30
2019-05-26T15:59:35.408Z,2.77
2019-05-26T16:02:06.161Z,2.60
2019-05-26T16:04:36.605Z,2.70
2019-05-26T16:07:07.307Z,2.77
2019-05-26T16:09:37.744Z,3.30
2019-05-26T16:12:08.087Z,3.30
2019-05-26T16:14:38.683Z,2.83
2019-05-26T16:17:09.176Z,3.13
2019-05-26T16:19:39.897Z,2.63
2019-05-26T16:22:10.366Z,2.97
2019-05-26T16:24:40.750Z,2.27
2019-05-26T16:27:19.062Z,2.40
2019-05-26T16:29:41.821Z,3.43
2019-05-26T16:32:12.334Z,2.00
2019-05-26T16:34:42.629Z,2.87
2019-05-26T16:37:12.809Z,2.43
2019-05-26T16:39:43.200Z,4.57
2019-05-26T16:42:13.600Z,3.70
2019-05-26T16:44:44.025Z,3.67
2019-05-26T16:47:14.588Z,2.50
2019-05-26T16:49:45.237Z,2.47
2019-05-26T16:52:15.606Z,3.20
2019-05-26T16:54:45.456Z,3.37
2019-05-26T16:57:15.909Z,2.70
2019-05-26T16:59:46.339Z,2.60
2019-05-26T17:02:16.802Z,2.53
2019-05-26T17:04:47.296Z,2.73
2019-05-26T17:07:17.640Z,3.50
2019-05-26T17:09:48.164Z,3.07
2019-05-26T17:12:18.524Z,2.93
2019-05-26T17:14:49.129Z,4.70
2019-05-26T17:17:19.869Z,4.50
2019-05-26T17:19:52.596Z,2.57
2019-05-26T17:22:20.146Z,5.47
2019-05-26T17:24:50.633Z,4.17
2019-05-26T17:27:21.143Z,5.63
2019-05-26T17:29:51.414Z,3.13
2019-05-26T17:32:21.759Z,6.77
2019-05-26T17:34:52.366Z,5.90
2019-05-26T17:37:22.877Z,2.80
2019-05-26T17:39:53.345Z,2.70
2019-05-26T17:42:24.469Z,3.13
2019-05-26T17:44:55.031Z,3.07
2019-05-26T17:47:30.294Z,5.23
2019-05-26T17:49:56.056Z,3.30
2019-05-26T17:52:26.624Z,2.90
2019-05-26T17:54:57.019Z,3.53
2019-05-26T17:57:27.712Z,3.70
2019-05-26T17:59:58.282Z,3.77
2019-05-26T18:02:28.785Z,4.33
2019-05-26T18:04:59.238Z,3.83
2019-05-26T18:07:29.563Z,3.40
2019-05-26T18:10:00.253Z,3.57
2019-05-26T18:12:30.675Z,7.27
2019-05-26T18:15:01.199Z,4.37
2019-05-26T18:17:45.912Z,9.27
2019-05-26T18:20:01.967Z,5.47
2019-05-26T18:22:32.634Z,6.40
2019-05-26T18:25:03.250Z,4.87
2019-05-26T18:27:33.812Z,10.33
2019-05-26T18:30:04.594Z,14.90
2019-05-26T18:32:35.366Z,7.40
2019-05-26T18:35:06.323Z,13.03
2019-05-26T18:37:36.841Z,9.20
2019-05-26T18:40:07.590Z,16.67
2019-05-26T18:42:39.028Z,8.07
2019-05-26T18:45:09.731Z,8.33
2019-05-26T18:47:40.229Z,8.50
2019-05-26T18:50:10.963Z,8.57
2019-05-26T18:52:41.725Z,9.77
2019-05-26T18:55:12.498Z,15.63
2019-05-26T18:57:43.018Z,12.70
2019-05-26T19:00:13.878Z,20.87
2019-05-26T19:02:44.545Z,23.07
2019-05-26T19:05:15.102Z,18.97
2019-05-26T19:07:45.625Z,18.40
2019-05-26T19:10:15.720Z,12.87
2019-05-26T19:12:46.217Z,21.13
2019-05-26T19:15:16.709Z,21.43
2019-05-26T19:17:47.099Z,17.07
2019-05-26T19:20:17.579Z,14.80
2019-05-26T19:22:48.231Z,16.83
2019-05-26T19:25:18.702Z,14.33
2019-05-26T19:27:49.421Z,18.07
2019-05-26T19:30:19.290Z,17.37
2019-05-26T19:32:49.522Z,19.50
2019-05-26T19:35:20.025Z,17.30
2019-05-26T19:37:50.682Z,16.53
2019-05-26T19:40:21.174Z,16.10
2019-05-26T19:42:51.584Z,16.33
2019-05-26T19:45:21.915Z,18.37
2019-05-26T19:47:52.466Z,12.73
2019-05-26T19:50:22.961Z,8.00
2019-05-26T19:52:53.345Z,14.03
2019-05-26T19:55:23.955Z,12.47
2019-05-26T19:57:54.342Z,14.03
2019-05-26T20:00:25.059Z,11.03
2019-05-26T20:02:55.513Z,8.57
2019-05-26T20:05:26.039Z,9.73
2019-05-26T20:07:56.476Z,10.60
2019-05-26T20:10:27.124Z,19.20
2019-05-26T20:12:57.682Z,11.53
2019-05-26T20:15:28.158Z,8.43
2019-05-26T20:17:58.633Z,9.33
2019-05-26T20:20:29.183Z,7.00
2019-05-26T20:22:59.678Z,10.50
2019-05-26T20:25:30.136Z,9.60
2019-05-26T20:28:01.448Z,10.47
2019-05-26T20:30:31.818Z,9.67
2019-05-26T20:33:01.636Z,18.50
2019-05-26T20:35:31.926Z,11.17
2019-05-26T20:38:02.326Z,8.23
2019-05-26T20:40:32.797Z,10.50
2019-05-26T20:43:03.227Z,8.87
2019-05-26T20:45:33.663Z,7.30
2019-05-26T20:48:04.240Z,7.27
2019-05-26T20:50:34.738Z,11.57
2019-05-26T20:53:05.614Z,18.93
2019-05-26T20:55:35.969Z,9.23
2019-05-26T20:58:07.378Z,10.37
2019-05-26T21:00:37.784Z,10.67
2019-05-26T21:03:08.357Z,8.30
2019-05-26T21:05:38.830Z,11.27
2019-05-26T21:08:09.247Z,7.47
2019-05-26T21:10:39.041Z,31.70
2019-05-26T21:13:10.252Z,49.23
2019-05-26T21:15:40.876Z,35.87
2019-05-26T21:18:11.206Z,45.77
2019-05-26T21:20:41.663Z,37.37
2019-05-26T21:23:12.125Z,25.00
2019-05-26T21:25:42.432Z,35.07
2019-05-26T21:28:12.858Z,31.30
2019-05-26T21:30:43.133Z,19.07
2019-05-26T21:33:13.467Z,20.77
2019-05-26T21:35:43.879Z,33.23
2019-05-26T21:38:14.465Z,16.23
2019-05-26T21:40:45.136Z,21.73
2019-05-26T21:43:15.790Z,13.60
2019-05-26T21:45:46.296Z,8.83
2019-05-26T21:48:16.878Z,10.63
2019-05-26T21:50:47.008Z,10.93
2019-05-26T21:53:17.382Z,12.67
2019-05-26T21:55:47.453Z,10.83
2019-05-26T21:58:17.654Z,10.40
2019-05-26T22:00:59.098Z,9.43
2019-05-26T22:03:29.295Z,10.20
2019-05-26T22:05:59.376Z,12.33
2019-05-26T22:08:29.540Z,9.70
2019-05-26T22:10:59.647Z,8.87
2019-05-26T22:13:29.794Z,9.17
2019-05-26T22:15:59.936Z,9.20
2019-05-26T22:18:30.044Z,9.13
2019-05-26T22:21:00.159Z,11.00
2019-05-26T22:23:30.368Z,8.07
2019-05-26T22:26:00.833Z,12.10
2019-05-26T22:28:31.006Z,12.00
2019-05-26T22:31:00.512Z,9.87
2019-05-26T22:33:30.484Z,11.03
2019-05-26T22:36:00.633Z,11.30
2019-05-26T22:38:30.727Z,10.70
2019-05-26T22:41:00.853Z,9.90
2019-05-26T22:43:30.903Z,9.93
2019-05-26T22:46:01.046Z,9.80
2019-05-26T22:48:31.134Z,10.57
2019-05-26T22:51:01.267Z,9.00
2019-05-26T22:53:31.787Z,10.63
2019-05-26T22:56:01.905Z,10.70
2019-05-26T22:58:31.991Z,9.07
2019-05-26T23:01:02.122Z,10.63
2019-05-26T23:03:32.177Z,10.33
2019-05-26T23:06:02.438Z,11.97
2019-05-26T23:08:32.539Z,11.60
2019-05-26T23:11:02.651Z,11.27
2019-05-26T23:13:32.751Z,11.53
2019-05-26T23:16:02.865Z,16.33
2019-05-26T23:18:32.961Z,20.03
2019-05-26T23:21:03.095Z,10.20
2019-05-26T23:23:33.180Z,8.90
2019-05-26T23:26:03.330Z,11.70
2019-05-26T23:28:33.420Z,13.13
2019-05-26T23:31:03.573Z,9.73
2019-05-26T23:33:33.961Z,10.13
2019-05-26T23:36:04.104Z,10.97
2019-05-26T23:38:34.203Z,9.63
2019-05-26T23:41:04.667Z,9.77
2019-05-26T23:43:34.636Z,8.53
2019-05-26T23:46:04.803Z,13.30
2019-05-26T23:48:34.861Z,12.03
2019-05-26T23:51:05.041Z,15.60
2019-05-26T23:53:35.456Z,12.93
2019-05-26T23:56:05.598Z,10.40
2019-05-26T23:58:35.984Z,12.60
